Redbud, Illinois
Current Conditions -  °F | °C
As of 12:15 AM on Thursday 29 Jan 2015 (Local Time) from KSAR Reporting Station
Clear Clear  
Wind Chill: 40°   Ceiling: Unl
Heat Index: 47°   Visibility: 10mi
Dew Point: 33°   Wind: 16mph
Humidity: 60%   Direction: 180°S
Pressure: 29.87"   Gusts: 26mph
Location:  38.1575°N, 89.9813°W
Report Text: KSAR 290615Z AUTO 18014G23KT 10SM CLR 08/01 A2987 RMK AO2 T00810007
Loading
Personal Weather Stations






























Interactive Weather Map New forecast layout! Learn more

10-Day Weather Forecast

Advertisements
Track Severe Weather on mobile